sensor_id;sensor_type;location;lat;lon;timestamp;pressure;altitude;pressure_sealevel;temperature;humidity
59289;BME280;45056;47.602;9.886;2022-12-29T00:01:08;92773.53;;;6.72;44.48
59289;BME280;45056;47.602;9.886;2022-12-29T00:03:37;92768.53;;;6.70;44.46
59289;BME280;45056;47.602;9.886;2022-12-29T00:06:05;92767.03;;;6.69;44.48
59289;BME280;45056;47.602;9.886;2022-12-29T00:08:33;92766.69;;;6.67;44.54
59289;BME280;45056;47.602;9.886;2022-12-29T00:11:07;92757.13;;;6.62;44.28
59289;BME280;45056;47.602;9.886;2022-12-29T00:13:38;92753.66;;;6.62;44.43
59289;BME280;45056;47.602;9.886;2022-12-29T00:16:23;92755.59;;;6.61;44.58
59289;BME280;45056;47.602;9.886;2022-12-29T00:18:52;92745.97;;;6.60;44.59
59289;BME280;45056;47.602;9.886;2022-12-29T00:21:22;92747.94;;;6.60;44.68
59289;BME280;45056;47.602;9.886;2022-12-29T00:24:12;92754.06;;;6.60;44.77
59289;BME280;45056;47.602;9.886;2022-12-29T00:27:10;92741.75;;;6.59;44.61
59289;BME280;45056;47.602;9.886;2022-12-29T00:29:58;92742.53;;;6.60;44.50
59289;BME280;45056;47.602;9.886;2022-12-29T00:32:44;92740.56;;;6.60;44.31
59289;BME280;45056;47.602;9.886;2022-12-29T00:35:33;92743.59;;;6.62;44.13
59289;BME280;45056;47.602;9.886;2022-12-29T00:38:08;92737.00;;;6.63;44.05
59289;BME280;45056;47.602;9.886;2022-12-29T00:40:55;92736.94;;;6.67;43.34
59289;BME280;45056;47.602;9.886;2022-12-29T00:43:41;92732.28;;;6.68;43.37
59289;BME280;45056;47.602;9.886;2022-12-29T00:46:28;92738.03;;;6.70;43.37
59289;BME280;45056;47.602;9.886;2022-12-29T00:48:56;92736.44;;;6.72;43.35
59289;BME280;45056;47.602;9.886;2022-12-29T00:51:42;92737.63;;;6.71;43.50
59289;BME280;45056;47.602;9.886;2022-12-29T00:54:10;92746.50;;;6.72;43.50
59289;BME280;45056;47.602;9.886;2022-12-29T00:56:39;92745.72;;;6.71;43.48
59289;BME280;45056;47.602;9.886;2022-12-29T00:59:08;92757.31;;;6.72;43.74
59289;BME280;45056;47.602;9.886;2022-12-29T01:01:39;92752.31;;;6.70;43.79
59289;BME280;45056;47.602;9.886;2022-12-29T01:04:09;92744.94;;;6.71;44.00
59289;BME280;45056;47.602;9.886;2022-12-29T01:06:39;92752.31;;;6.70;44.02
59289;BME280;45056;47.602;9.886;2022-12-29T01:09:09;92750.81;;;6.69;43.78
59289;BME280;45056;47.602;9.886;2022-12-29T01:11:55;92760.84;;;6.69;43.52
59289;BME280;45056;47.602;9.886;2022-12-29T01:14:24;92753.91;;;6.68;43.50
59289;BME280;45056;47.602;9.886;2022-12-29T01:16:55;92753.16;;;6.67;43.71
59289;BME280;45056;47.602;9.886;2022-12-29T01:19:24;92754.69;;;6.68;43.55
59289;BME280;45056;47.602;9.886;2022-12-29T01:21:53;92759.66;;;6.70;43.35
59289;BME280;45056;47.602;9.886;2022-12-29T01:24:21;92749.63;;;6.70;43.14
59289;BME280;45056;47.602;9.886;2022-12-29T01:26:50;92755.38;;;6.72;43.03
59289;BME280;45056;47.602;9.886;2022-12-29T01:29:20;92749.13;;;6.75;42.86
59289;BME280;45056;47.602;9.886;2022-12-29T01:31:48;92755.97;;;6.80;42.69
59289;BME280;45056;47.602;9.886;2022-12-29T01:34:18;92755.53;;;6.82;42.96
59289;BME280;45056;47.602;9.886;2022-12-29T01:36:46;92751.22;;;6.84;42.77
59289;BME280;45056;47.602;9.886;2022-12-29T01:39:14;92747.34;;;6.85;42.82
59289;BME280;45056;47.602;9.886;2022-12-29T01:41:42;92758.91;;;6.86;42.63
59289;BME280;45056;47.602;9.886;2022-12-29T01:44:41;92750.38;;;6.87;42.71
59289;BME280;45056;47.602;9.886;2022-12-29T01:47:26;92752.69;;;6.89;42.63
59289;BME280;45056;47.602;9.886;2022-12-29T01:50:05;92751.91;;;6.88;42.76
59289;BME280;45056;47.602;9.886;2022-12-29T01:52:42;92749.53;;;6.90;42.85
59289;BME280;45056;47.602;9.886;2022-12-29T01:55:17;92749.53;;;6.90;42.76
59289;BME280;45056;47.602;9.886;2022-12-29T01:57:50;92740.25;;;6.91;42.64
59289;BME280;45056;47.602;9.886;2022-12-29T02:00:20;92744.91;;;6.91;42.60
59289;BME280;45056;47.602;9.886;2022-12-29T02:02:51;92745.75;;;6.88;42.31
59289;BME280;45056;47.602;9.886;2022-12-29T02:05:26;92738.06;;;6.86;42.41
59289;BME280;45056;47.602;9.886;2022-12-29T02:08:01;92738.13;;;6.83;42.45
59289;BME280;45056;47.602;9.886;2022-12-29T02:10:32;92731.19;;;6.82;42.54
59289;BME280;45056;47.602;9.886;2022-12-29T02:13:02;92733.56;;;6.79;42.46
59289;BME280;45056;47.602;9.886;2022-12-29T02:15:41;92738.22;;;6.79;42.33
59289;BME280;45056;47.602;9.886;2022-12-29T02:18:30;92728.16;;;6.79;42.51
59289;BME280;45056;47.602;9.886;2022-12-29T02:21:45;92730.44;;;6.81;42.47
59289;BME280;45056;47.602;9.886;2022-12-29T02:28:22;92734.66;;;6.82;42.15
59289;BME280;45056;47.602;9.886;2022-12-29T02:31:17;92730.34;;;6.85;42.05
59289;BME280;45056;47.602;9.886;2022-12-29T02:34:09;92729.53;;;6.88;42.05
59289;BME280;45056;47.602;9.886;2022-12-29T02:36:58;92727.91;;;6.90;41.82
59289;BME280;45056;47.602;9.886;2022-12-29T02:39:40;92736.78;;;6.91;41.72
59289;BME280;45056;47.602;9.886;2022-12-29T02:42:24;92724.44;;;6.90;41.91
59289;BME280;45056;47.602;9.886;2022-12-29T02:45:07;92725.63;;;6.89;41.90
59289;BME280;45056;47.602;9.886;2022-12-29T02:47:54;92724.94;;;6.85;41.71
59289;BME280;45056;47.602;9.886;2022-12-29T02:50:36;92733.16;;;6.81;42.03
59289;BME280;45056;47.602;9.886;2022-12-29T02:53:11;92726.97;;;6.81;41.99
59289;BME280;45056;47.602;9.886;2022-12-29T02:55:47;92727.75;;;6.81;41.97
59289;BME280;45056;47.602;9.886;2022-12-29T02:58:21;92723.09;;;6.82;42.06
59289;BME280;45056;47.602;9.886;2022-12-29T03:01:10;92720.38;;;6.82;42.12
59289;BME280;45056;47.602;9.886;2022-12-29T03:06:57;92715.81;;;6.78;42.09
59289;BME280;45056;47.602;9.886;2022-12-29T03:09:43;92711.94;;;6.79;41.98
59289;BME280;45056;47.602;9.886;2022-12-29T03:12:30;92714.63;;;6.79;41.98
59289;BME280;45056;47.602;9.886;2022-12-29T03:15:31;92702.63;;;6.81;42.11
59289;BME280;45056;47.602;9.886;2022-12-29T03:18:33;92717.34;;;6.79;42.17
59289;BME280;45056;47.602;9.886;2022-12-29T03:21:12;92703.81;;;6.79;42.23
59289;BME280;45056;47.602;9.886;2022-12-29T03:23:46;92701.44;;;6.82;42.46
59289;BME280;45056;47.602;9.886;2022-12-29T03:26:20;92704.16;;;6.82;42.35
59289;BME280;45056;47.602;9.886;2022-12-29T03:28:52;92699.06;;;6.84;42.30
59289;BME280;45056;47.602;9.886;2022-12-29T03:31:25;92696.38;;;6.84;41.83
59289;BME280;45056;47.602;9.886;2022-12-29T03:33:56;92698.66;;;6.85;41.91
59289;BME280;45056;47.602;9.886;2022-12-29T03:36:36;92697.06;;;6.88;41.86
59289;BME280;45056;47.602;9.886;2022-12-29T03:39:12;92690.47;;;6.89;41.78
59289;BME280;45056;47.602;9.886;2022-12-29T03:41:44;92694.25;;;6.91;41.88
59289;BME280;45056;47.602;9.886;2022-12-29T03:44:14;92696.97;;;6.91;41.75
59289;BME280;45056;47.602;9.886;2022-12-29T03:46:41;92708.13;;;6.93;41.69
59289;BME280;45056;47.602;9.886;2022-12-29T03:49:09;92697.63;;;6.96;41.78
59289;BME280;45056;47.602;9.886;2022-12-29T03:51:39;92704.91;;;6.99;41.73
59289;BME280;45056;47.602;9.886;2022-12-29T03:54:07;92705.25;;;7.01;41.73
59289;BME280;45056;47.602;9.886;2022-12-29T03:56:35;92718.34;;;7.02;41.77
59289;BME280;45056;47.602;9.886;2022-12-29T03:59:03;92719.34;;;7.08;41.50
59289;BME280;45056;47.602;9.886;2022-12-29T04:01:31;92720.81;;;7.13;41.34
59289;BME280;45056;47.602;9.886;2022-12-29T04:03:59;92706.41;;;7.16;40.97
59289;BME280;45056;47.602;9.886;2022-12-29T04:06:27;92705.56;;;7.19;40.98
59289;BME280;45056;47.602;9.886;2022-12-29T04:08:56;92709.38;;;7.22;41.12
59289;BME280;45056;47.602;9.886;2022-12-29T04:11:24;92712.09;;;7.22;41.26
59289;BME280;45056;47.602;9.886;2022-12-29T04:13:52;92715.53;;;7.22;41.30
59289;BME280;45056;47.602;9.886;2022-12-29T04:16:20;92717.50;;;7.22;41.10
59289;BME280;45056;47.602;9.886;2022-12-29T04:18:48;92719.44;;;7.21;41.04
59289;BME280;45056;47.602;9.886;2022-12-29T04:21:16;92703.97;;;7.22;41.02
59289;BME280;45056;47.602;9.886;2022-12-29T04:23:44;92718.56;;;7.25;41.12
59289;BME280;45056;47.602;9.886;2022-12-29T04:26:14;92720.88;;;7.26;40.77
59289;BME280;45056;47.602;9.886;2022-12-29T04:28:41;92716.19;;;7.27;40.70
59289;BME280;45056;47.602;9.886;2022-12-29T04:31:10;92703.78;;;7.29;40.89
59289;BME280;45056;47.602;9.886;2022-12-29T04:33:38;92706.81;;;7.31;40.86
59289;BME280;45056;47.602;9.886;2022-12-29T04:36:06;92705.22;;;7.34;40.77
59289;BME280;45056;47.602;9.886;2022-12-29T04:38:34;92702.41;;;7.38;40.30
59289;BME280;45056;47.602;9.886;2022-12-29T04:41:02;92711.19;;;7.42;39.62
59289;BME280;45056;47.602;9.886;2022-12-29T04:43:32;92707.94;;;7.47;39.24
59289;BME280;45056;47.602;9.886;2022-12-29T04:46:00;92712.88;;;7.52;39.05
59289;BME280;45056;47.602;9.886;2022-12-29T04:48:28;92720.81;;;7.59;38.76
59289;BME280;45056;47.602;9.886;2022-12-29T04:50:56;92709.44;;;7.64;38.38
59289;BME280;45056;47.602;9.886;2022-12-29T04:53:24;92713.13;;;7.71;38.21
59289;BME280;45056;47.602;9.886;2022-12-29T04:55:52;92711.53;;;7.73;38.70
59289;BME280;45056;47.602;9.886;2022-12-29T04:58:22;92710.75;;;7.73;39.07
59289;BME280;45056;47.602;9.886;2022-12-29T05:00:51;92709.25;;;7.72;39.41
59289;BME280;45056;47.602;9.886;2022-12-29T05:03:20;92717.03;;;7.70;39.34
59289;BME280;45056;47.602;9.886;2022-12-29T05:05:48;92714.00;;;7.68;39.74
59289;BME280;45056;47.602;9.886;2022-12-29T05:08:16;92709.03;;;7.66;39.75
59289;BME280;45056;47.602;9.886;2022-12-29T05:10:45;92708.34;;;7.62;39.96
59289;BME280;45056;47.602;9.886;2022-12-29T05:13:13;92706.06;;;7.60;39.97
59289;BME280;45056;47.602;9.886;2022-12-29T05:15:47;92708.44;;;7.58;40.06
59289;BME280;45056;47.602;9.886;2022-12-29T05:18:18;92708.53;;;7.55;40.22
59289;BME280;45056;47.602;9.886;2022-12-29T05:20:47;92708.66;;;7.51;40.52
59289;BME280;45056;47.602;9.886;2022-12-29T05:23:15;92700.94;;;7.49;40.52
59289;BME280;45056;47.602;9.886;2022-12-29T05:25:44;92708.72;;;7.47;40.58
59289;BME280;45056;47.602;9.886;2022-12-29T05:28:12;92709.59;;;7.44;40.43
59289;BME280;45056;47.602;9.886;2022-12-29T05:30:41;92706.53;;;7.42;40.59
59289;BME280;45056;47.602;9.886;2022-12-29T05:33:09;92692.34;;;7.38;40.80
59289;BME280;45056;47.602;9.886;2022-12-29T05:35:39;92694.72;;;7.36;40.99
59289;BME280;45056;47.602;9.886;2022-12-29T05:38:07;92692.44;;;7.34;40.82
59289;BME280;45056;47.602;9.886;2022-12-29T05:40:35;92690.13;;;7.33;40.63
59289;BME280;45056;47.602;9.886;2022-12-29T05:43:04;92697.50;;;7.32;40.78
59289;BME280;45056;47.602;9.886;2022-12-29T05:45:31;92695.56;;;7.33;40.81
59289;BME280;45056;47.602;9.886;2022-12-29T05:48:00;92689.81;;;7.31;41.00
59289;BME280;45056;47.602;9.886;2022-12-29T05:50:28;92690.66;;;7.28;40.89
59289;BME280;45056;47.602;9.886;2022-12-29T05:52:57;92688.06;;;7.24;41.09
59289;BME280;45056;47.602;9.886;2022-12-29T05:55:25;92685.03;;;7.22;41.36
59289;BME280;45056;47.602;9.886;2022-12-29T05:57:53;92675.47;;;7.17;41.30
59289;BME280;45056;47.602;9.886;2022-12-29T06:00:21;92675.56;;;7.14;41.29
59289;BME280;45056;47.602;9.886;2022-12-29T06:02:49;92679.09;;;7.11;41.51
59289;BME280;45056;47.602;9.886;2022-12-29T06:05:17;92683.44;;;7.08;41.77
59289;BME280;45056;47.602;9.886;2022-12-29T06:07:45;92677.69;;;7.06;42.05
59289;BME280;45056;47.602;9.886;2022-12-29T06:10:15;92682.00;;;7.03;42.17
59289;BME280;45056;47.602;9.886;2022-12-29T06:12:43;92683.25;;;6.99;42.58
59289;BME280;45056;47.602;9.886;2022-12-29T06:15:12;92687.25;;;6.94;42.84
59289;BME280;45056;47.602;9.886;2022-12-29T06:17:40;92685.41;;;6.91;42.74
59289;BME280;45056;47.602;9.886;2022-12-29T06:20:10;92685.81;;;6.89;42.43
59289;BME280;45056;47.602;9.886;2022-12-29T06:22:38;92688.59;;;6.86;42.33
59289;BME280;45056;47.602;9.886;2022-12-29T06:25:07;92695.19;;;6.85;42.58
59289;BME280;45056;47.602;9.886;2022-12-29T06:27:37;92698.34;;;6.83;42.58
59289;BME280;45056;47.602;9.886;2022-12-29T06:30:06;92711.19;;;6.79;42.82
59289;BME280;45056;47.602;9.886;2022-12-29T06:32:35;92701.63;;;6.74;42.48
59289;BME280;45056;47.602;9.886;2022-12-29T06:35:04;92717.91;;;6.71;42.58
59289;BME280;45056;47.602;9.886;2022-12-29T06:37:33;92710.25;;;6.69;42.60
59289;BME280;45056;47.602;9.886;2022-12-29T06:40:01;92710.25;;;6.69;42.28
59289;BME280;45056;47.602;9.886;2022-12-29T06:42:29;92705.59;;;6.70;42.46
59289;BME280;45056;47.602;9.886;2022-12-29T06:44:58;92711.75;;;6.70;42.56
59289;BME280;45056;47.602;9.886;2022-12-29T06:47:27;92708.28;;;6.70;42.30
59289;BME280;45056;47.602;9.886;2022-12-29T06:49:55;92711.75;;;6.70;42.64
59289;BME280;45056;47.602;9.886;2022-12-29T06:52:23;92721.41;;;6.71;42.22
59289;BME280;45056;47.602;9.886;2022-12-29T06:54:51;92718.63;;;6.75;41.92
59289;BME280;45056;47.602;9.886;2022-12-29T06:57:19;92725.03;;;6.81;41.51
59289;BME280;45056;47.602;9.886;2022-12-29T06:59:47;92719.13;;;6.86;41.10
59289;BME280;45056;47.602;9.886;2022-12-29T07:02:17;92723.16;;;6.95;40.68
59289;BME280;45056;47.602;9.886;2022-12-29T07:04:45;92720.28;;;7.02;40.52
59289;BME280;45056;47.602;9.886;2022-12-29T07:07:13;92720.47;;;7.11;39.78
59289;BME280;45056;47.602;9.886;2022-12-29T07:09:41;92713.28;;;7.21;39.25
59289;BME280;45056;47.602;9.886;2022-12-29T07:12:09;92718.84;;;7.30;38.98
59289;BME280;45056;47.602;9.886;2022-12-29T07:14:37;92719.41;;;7.38;38.82
59289;BME280;45056;47.602;9.886;2022-12-29T07:17:05;92726.50;;;7.48;38.64
59289;BME280;45056;47.602;9.886;2022-12-29T07:19:35;92723.19;;;7.57;38.66
59289;BME280;45056;47.602;9.886;2022-12-29T07:22:03;92732.63;;;7.65;38.64
59289;BME280;45056;47.602;9.886;2022-12-29T07:24:31;92732.00;;;7.74;38.56
59289;BME280;45056;47.602;9.886;2022-12-29T07:26:59;92738.00;;;7.82;38.69
59289;BME280;45056;47.602;9.886;2022-12-29T07:29:27;92740.50;;;7.89;38.51
59289;BME280;45056;47.602;9.886;2022-12-29T07:31:55;92740.72;;;7.95;38.98
59289;BME280;45056;47.602;9.886;2022-12-29T07:34:28;92745.53;;;8.04;40.22
59289;BME280;45056;47.602;9.886;2022-12-29T07:37:20;92751.75;;;8.17;40.46
59289;BME280;45056;47.602;9.886;2022-12-29T07:39:48;92754.56;;;8.27;39.26
59289;BME280;45056;47.602;9.886;2022-12-29T07:42:26;92743.97;;;8.32;38.80
59289;BME280;45056;47.602;9.886;2022-12-29T07:45:00;92750.38;;;8.38;38.54
59289;BME280;45056;47.602;9.886;2022-12-29T07:47:28;92741.28;;;8.45;38.27
59289;BME280;45056;47.602;9.886;2022-12-29T07:49:57;92743.13;;;8.48;38.06
59289;BME280;45056;47.602;9.886;2022-12-29T07:52:35;92753.00;;;8.55;38.03
59289;BME280;45056;47.602;9.886;2022-12-29T07:55:06;92759.44;;;8.61;37.61
59289;BME280;45056;47.602;9.886;2022-12-29T07:57:36;92755.41;;;8.66;37.29
59289;BME280;45056;47.602;9.886;2022-12-29T08:00:17;92754.13;;;8.71;37.11
59289;BME280;45056;47.602;9.886;2022-12-29T08:02:46;92763.69;;;8.75;36.99
59289;BME280;45056;47.602;9.886;2022-12-29T08:05:30;92755.72;;;8.81;36.76
59289;BME280;45056;47.602;9.886;2022-12-29T08:08:04;92757.16;;;8.86;36.58
59289;BME280;45056;47.602;9.886;2022-12-29T08:10:32;92765.94;;;8.90;36.37
59289;BME280;45056;47.602;9.886;2022-12-29T08:13:02;92775.50;;;8.94;36.52
59289;BME280;45056;47.602;9.886;2022-12-29T08:15:34;92758.13;;;8.92;36.90
59289;BME280;45056;47.602;9.886;2022-12-29T08:18:03;92758.22;;;8.88;37.24
59289;BME280;45056;47.602;9.886;2022-12-29T08:20:36;92771.59;;;8.83;37.67
59289;BME280;45056;47.602;9.886;2022-12-29T08:23:07;92780.28;;;8.77;38.01
59289;BME280;45056;47.602;9.886;2022-12-29T08:25:37;92780.38;;;8.74;38.46
59289;BME280;45056;47.602;9.886;2022-12-29T08:28:06;92775.81;;;8.71;38.61
59289;BME280;45056;47.602;9.886;2022-12-29T08:30:36;92777.88;;;8.66;38.56
59289;BME280;45056;47.602;9.886;2022-12-29T08:33:04;92778.28;;;8.65;38.77
59289;BME280;45056;47.602;9.886;2022-12-29T08:35:34;92788.06;;;8.62;39.10
59289;BME280;45056;47.602;9.886;2022-12-29T08:38:02;92777.66;;;8.61;38.92
59289;BME280;45056;47.602;9.886;2022-12-29T08:40:32;92777.75;;;8.57;38.87
59289;BME280;45056;47.602;9.886;2022-12-29T08:43:03;92773.19;;;8.54;39.17
59289;BME280;45056;47.602;9.886;2022-12-29T08:45:33;92767.44;;;8.52;39.21
59289;BME280;45056;47.602;9.886;2022-12-29T08:48:02;92774.38;;;8.53;39.19
59289;BME280;45056;47.602;9.886;2022-12-29T08:50:30;92771.56;;;8.57;39.32
59289;BME280;45056;47.602;9.886;2022-12-29T08:53:00;92761.91;;;8.56;39.20
59289;BME280;45056;47.602;9.886;2022-12-29T08:55:28;92760.41;;;8.55;39.09
59289;BME280;45056;47.602;9.886;2022-12-29T08:57:56;92756.91;;;8.54;39.12
59289;BME280;45056;47.602;9.886;2022-12-29T09:00:24;92771.25;;;8.55;39.02
59289;BME280;45056;47.602;9.886;2022-12-29T09:02:52;92759.22;;;8.56;39.36
59289;BME280;45056;47.602;9.886;2022-12-29T09:05:21;92764.53;;;8.59;39.03
59289;BME280;45056;47.602;9.886;2022-12-29T09:07:49;92770.28;;;8.61;38.97
59289;BME280;45056;47.602;9.886;2022-12-29T09:10:18;92754.22;;;8.67;39.02
59289;BME280;45056;47.602;9.886;2022-12-29T09:12:46;92763.00;;;8.71;39.05
59289;BME280;45056;47.602;9.886;2022-12-29T09:15:14;92764.41;;;8.76;38.77
59289;BME280;45056;47.602;9.886;2022-12-29T09:17:43;92760.97;;;8.75;38.43
59289;BME280;45056;47.602;9.886;2022-12-29T09:20:13;92773.00;;;8.74;38.61
59289;BME280;45056;47.602;9.886;2022-12-29T09:22:43;92776.88;;;8.73;38.74
59289;BME280;45056;47.602;9.886;2022-12-29T09:25:12;92769.94;;;8.72;38.63
59289;BME280;45056;47.602;9.886;2022-12-29T09:27:42;92775.72;;;8.74;38.52
59289;BME280;45056;47.602;9.886;2022-12-29T09:30:12;92777.56;;;8.77;38.62
59289;BME280;45056;47.602;9.886;2022-12-29T09:32:41;92771.59;;;8.83;38.46
59289;BME280;45056;47.602;9.886;2022-12-29T09:35:09;92775.69;;;8.87;38.29
59289;BME280;45056;47.602;9.886;2022-12-29T09:37:37;92770.50;;;8.93;38.35
59289;BME280;45056;47.602;9.886;2022-12-29T09:40:09;92782.31;;;8.99;38.20
59289;BME280;45056;47.602;9.886;2022-12-29T09:43:05;92781.03;;;9.04;37.82
59289;BME280;45056;47.602;9.886;2022-12-29T09:45:58;92781.56;;;9.12;38.02
59289;BME280;45056;47.602;9.886;2022-12-29T09:48:41;92781.34;;;9.19;37.91
59289;BME280;45056;47.602;9.886;2022-12-29T09:51:21;92774.94;;;9.26;37.85
59289;BME280;45056;47.602;9.886;2022-12-29T09:53:56;92779.34;;;9.32;38.00
59289;BME280;45056;47.602;9.886;2022-12-29T09:56:27;92771.41;;;9.38;37.66
59289;BME280;45056;47.602;9.886;2022-12-29T09:59:05;92775.09;;;9.44;37.70
59289;BME280;45056;47.602;9.886;2022-12-29T10:01:46;92781.16;;;9.48;37.64
59289;BME280;45056;47.602;9.886;2022-12-29T10:04:21;92780.63;;;9.53;37.57
59289;BME280;45056;47.602;9.886;2022-12-29T10:06:56;92785.94;;;9.57;37.52
59289;BME280;45056;47.602;9.886;2022-12-29T10:09:45;92777.69;;;9.61;37.33
59289;BME280;45056;47.602;9.886;2022-12-29T10:12:31;92771.78;;;9.62;37.09
59289;BME280;45056;47.602;9.886;2022-12-29T10:15:22;92776.03;;;9.63;37.14
59289;BME280;45056;47.602;9.886;2022-12-29T10:18:37;92774.28;;;9.70;36.91
59289;BME280;45056;47.602;9.886;2022-12-29T10:22:28;92765.31;;;9.82;36.68
59289;BME280;45056;47.602;9.886;2022-12-29T10:25:13;92762.81;;;9.88;36.14
59289;BME280;45056;47.602;9.886;2022-12-29T10:27:48;92747.88;;;9.92;35.67
59289;BME280;45056;47.602;9.886;2022-12-29T10:30:22;92750.03;;;9.98;36.04
59289;BME280;45056;47.602;9.886;2022-12-29T10:33:07;92756.22;;;9.98;35.72
59289;BME280;45056;47.602;9.886;2022-12-29T10:35:47;92763.06;;;10.03;35.88
59289;BME280;45056;47.602;9.886;2022-12-29T10:42:15;92742.06;;;10.25;35.62
59289;BME280;45056;47.602;9.886;2022-12-29T10:44:54;92738.91;;;10.27;35.49
59289;BME280;45056;47.602;9.886;2022-12-29T10:47:27;92733.97;;;10.35;35.64
59289;BME280;45056;47.602;9.886;2022-12-29T10:50:02;92731.19;;;10.48;35.81
59289;BME280;45056;47.602;9.886;2022-12-29T10:52:34;92732.56;;;10.52;35.71
59289;BME280;45056;47.602;9.886;2022-12-29T10:55:30;92725.38;;;10.68;35.79
59289;BME280;45056;47.602;9.886;2022-12-29T10:58:06;92722.47;;;10.94;35.52
59289;BME280;45056;47.602;9.886;2022-12-29T11:00:43;92716.03;;;11.19;35.20
59289;BME280;45056;47.602;9.886;2022-12-29T11:03:48;92714.84;;;11.48;35.09
59289;BME280;45056;47.602;9.886;2022-12-29T11:06:30;92712.28;;;11.73;35.25
59289;BME280;45056;47.602;9.886;2022-12-29T11:09:14;92711.09;;;12.02;35.06
59289;BME280;45056;47.602;9.886;2022-12-29T11:11:47;92708.75;;;12.28;34.46
59289;BME280;45056;47.602;9.886;2022-12-29T11:14:19;92704.78;;;12.48;34.09
59289;BME280;45056;47.602;9.886;2022-12-29T11:16:57;92709.44;;;12.66;33.33
59289;BME280;45056;47.602;9.886;2022-12-29T11:19:29;92703.75;;;12.79;32.84
59289;BME280;45056;47.602;9.886;2022-12-29T11:22:13;92701.19;;;12.75;32.75
59289;BME280;45056;47.602;9.886;2022-12-29T11:24:49;92691.69;;;12.61;33.04
59289;BME280;45056;47.602;9.886;2022-12-29T11:27:21;92696.44;;;12.51;33.49
59289;BME280;45056;47.602;9.886;2022-12-29T11:29:52;92701.91;;;12.51;33.42
59289;BME280;45056;47.602;9.886;2022-12-29T11:32:22;92698.88;;;12.49;33.09
59289;BME280;45056;47.602;9.886;2022-12-29T11:34:54;92694.63;;;12.48;32.97
59289;BME280;45056;47.602;9.886;2022-12-29T11:37:29;92695.25;;;12.43;33.48
59289;BME280;45056;47.602;9.886;2022-12-29T11:40:03;92692.84;;;12.36;33.69
59289;BME280;45056;47.602;9.886;2022-12-29T11:42:36;92687.09;;;12.34;34.09
59289;BME280;45056;47.602;9.886;2022-12-29T11:45:16;92684.66;;;12.36;34.39
59289;BME280;45056;47.602;9.886;2022-12-29T11:47:51;92679.34;;;12.41;34.47
59289;BME280;45056;47.602;9.886;2022-12-29T11:50:25;92680.09;;;12.42;34.62
59289;BME280;45056;47.602;9.886;2022-12-29T11:53:00;92683.72;;;12.48;34.38
59289;BME280;45056;47.602;9.886;2022-12-29T11:55:31;92676.13;;;12.52;35.15
59289;BME280;45056;47.602;9.886;2022-12-29T11:58:03;92680.66;;;12.55;35.31
59289;BME280;45056;47.602;9.886;2022-12-29T12:00:36;92678.69;;;12.56;35.46
59289;BME280;45056;47.602;9.886;2022-12-29T12:03:15;92678.84;;;12.52;35.01
59289;BME280;45056;47.602;9.886;2022-12-29T12:05:55;92677.50;;;12.48;35.55
59289;BME280;45056;47.602;9.886;2022-12-29T12:08:36;92674.91;;;12.53;35.66
59289;BME280;45056;47.602;9.886;2022-12-29T12:11:12;92667.59;;;12.60;35.68
59289;BME280;45056;47.602;9.886;2022-12-29T12:13:55;92669.84;;;12.61;35.16
59289;BME280;45056;47.602;9.886;2022-12-29T12:16:35;92667.91;;;12.62;34.11
59289;BME280;45056;47.602;9.886;2022-12-29T12:19:16;92660.28;;;12.66;33.60
59289;BME280;45056;47.602;9.886;2022-12-29T12:22:03;92664.53;;;12.67;33.22
59289;BME280;45056;47.602;9.886;2022-12-29T12:24:47;92660.78;;;12.64;32.93
59289;BME280;45056;47.602;9.886;2022-12-29T12:27:26;92662.44;;;12.62;32.98
59289;BME280;45056;47.602;9.886;2022-12-29T12:30:04;92657.13;;;12.58;32.78
59289;BME280;45056;47.602;9.886;2022-12-29T12:32:46;92651.09;;;12.54;32.58
59289;BME280;45056;47.602;9.886;2022-12-29T12:35:34;92652.50;;;12.49;32.59
59289;BME280;45056;47.602;9.886;2022-12-29T12:38:23;92648.84;;;12.43;32.60
59289;BME280;45056;47.602;9.886;2022-12-29T12:41:10;92643.59;;;12.39;32.71
59289;BME280;45056;47.602;9.886;2022-12-29T12:43:45;92640.22;;;12.45;32.36
59289;BME280;45056;47.602;9.886;2022-12-29T12:46:28;92639.75;;;12.46;32.46
59289;BME280;45056;47.602;9.886;2022-12-29T12:49:35;92640.66;;;12.43;32.29
59289;BME280;45056;47.602;9.886;2022-12-29T12:52:35;92631.31;;;12.35;32.60
59289;BME280;45056;47.602;9.886;2022-12-29T12:55:42;92637.41;;;12.30;32.95
59289;BME280;45056;47.602;9.886;2022-12-29T12:58:30;92643.78;;;12.26;33.43
59289;BME280;45056;47.602;9.886;2022-12-29T13:01:17;92637.25;;;12.24;33.72
59289;BME280;45056;47.602;9.886;2022-12-29T13:04:17;92650.31;;;12.20;33.74
59289;BME280;45056;47.602;9.886;2022-12-29T13:07:13;92668.34;;;12.17;33.91
59289;BME280;45056;47.602;9.886;2022-12-29T13:10:07;92659.56;;;12.13;34.25
59289;BME280;45056;47.602;9.886;2022-12-29T13:13:00;92656.22;;;12.09;34.39
59289;BME280;45056;47.602;9.886;2022-12-29T13:15:59;92647.75;;;12.07;34.30
59289;BME280;45056;47.602;9.886;2022-12-29T13:18:44;92624.59;;;12.02;34.54
59289;BME280;45056;47.602;9.886;2022-12-29T13:21:30;92633.66;;;11.99;34.72
59289;BME280;45056;47.602;9.886;2022-12-29T13:24:16;92624.88;;;11.95;34.48
59289;BME280;45056;47.602;9.886;2022-12-29T13:26:57;92614.88;;;11.92;34.60
59289;BME280;45056;47.602;9.886;2022-12-29T13:29:36;92622.03;;;11.89;34.60
59289;BME280;45056;47.602;9.886;2022-12-29T13:32:23;92626.13;;;11.84;34.62
59289;BME280;45056;47.602;9.886;2022-12-29T13:35:19;92627.78;;;11.82;34.77
59289;BME280;45056;47.602;9.886;2022-12-29T13:38:10;92637.16;;;11.81;34.64
59289;BME280;45056;47.602;9.886;2022-12-29T13:40:45;92634.91;;;11.79;34.68
59289;BME280;45056;47.602;9.886;2022-12-29T13:43:28;92628.69;;;11.79;34.77
59289;BME280;45056;47.602;9.886;2022-12-29T13:46:05;92625.66;;;11.77;34.85
59289;BME280;45056;47.602;9.886;2022-12-29T13:48:43;92626.13;;;11.75;35.11
59289;BME280;45056;47.602;9.886;2022-12-29T13:51:21;92623.56;;;11.72;34.87
59289;BME280;45056;47.602;9.886;2022-12-29T13:54:09;92620.53;;;11.69;34.67
59289;BME280;45056;47.602;9.886;2022-12-29T13:56:52;92614.03;;;11.67;34.83
59289;BME280;45056;47.602;9.886;2022-12-29T13:59:40;92615.22;;;11.66;35.03
59289;BME280;45056;47.602;9.886;2022-12-29T14:02:30;92605.53;;;11.65;35.15